Time;durP1;ratioP1;P1;durP2;ratioP2;P2;SDS_P1;SDS_P2;PMS_P1;PMS_P2;Temp;Humidity;BMP_temperature;BMP_pressure;BME280_temperature;BME280_humidity;BME280_pressure;Samples;Min_cycle;Max_cycle;Signal;HPM_P1;HPM_P2
2021/09/16 00:01:12;;;;;;;;;;;21.80;62.60;;;;;;490048;242;1198;-44
2021/09/16 00:03:14;;;;;;;;;;;21.80;62.70;;;;;;490495;242;1252;-44
2021/09/16 00:05:15;;;;;;;;;;;21.80;62.60;;;;;;490546;242;1111;-44
2021/09/16 00:07:16;;;;;;;;;;;21.80;62.70;;;;;;490226;242;1369;-44
2021/09/16 00:09:17;;;;;;;;;;;21.80;62.60;;;;;;490454;242;1138;-43
2021/09/16 00:11:19;;;;;;;;;;;21.80;62.60;;;;;;489971;242;1382;-44
2021/09/16 00:13:20;;;;;;;;;;;21.80;62.60;;;;;;490243;242;2122;-43
2021/09/16 00:15:21;;;;;;;;;;;21.80;62.70;;;;;;490045;242;1074;-44
2021/09/16 00:17:23;;;;;;;;;;;21.80;62.80;;;;;;490332;242;1285;-44
2021/09/16 00:19:24;;;;;;;;;;;21.80;62.80;;;;;;490175;242;1143;-44
2021/09/16 00:21:25;;;;;;;;;;;21.80;62.60;;;;;;490300;242;1217;-44
2021/09/16 00:23:28;;;;;;;;;;;21.80;62.70;;;;;;490356;242;1078;-44
2021/09/16 00:25:30;;;;;;;;;;;21.80;62.60;;;;;;490080;242;1187;-44
2021/09/16 00:27:31;;;;;;;;;;;21.80;62.60;;;;;;490118;242;1132;-44
2021/09/16 00:29:32;;;;;;;;;;;21.80;62.60;;;;;;490403;242;1017;-43
2021/09/16 00:31:34;;;;;;;;;;;21.80;62.60;;;;;;490059;242;1291;-44
2021/09/16 00:33:35;;;;;;;;;;;21.80;62.70;;;;;;490555;242;2164;-44
2021/09/16 00:35:36;;;;;;;;;;;21.80;62.70;;;;;;490123;242;1076;-43
2021/09/16 00:37:38;;;;;;;;;;;21.80;62.70;;;;;;490119;242;1256;-44
2021/09/16 00:39:39;;;;;;;;;;;21.80;62.70;;;;;;490577;242;1157;-44
2021/09/16 00:41:40;;;;;;;;;;;21.80;62.60;;;;;;490021;242;1333;-44
2021/09/16 00:43:41;;;;;;;;;;;21.80;62.60;;;;;;490086;242;1268;-44
2021/09/16 00:45:43;;;;;;;;;;;21.80;62.60;;;;;;490204;242;1509;-43
2021/09/16 00:47:44;;;;;;;;;;;21.80;62.60;;;;;;490189;242;1192;-43
2021/09/16 00:49:46;;;;;;;;;;;21.80;62.60;;;;;;490590;242;1048;-44
2021/09/16 00:51:47;;;;;;;;;;;21.80;62.60;;;;;;490295;242;1538;-44
2021/09/16 00:53:48;;;;;;;;;;;21.90;62.70;;;;;;490092;242;2192;-43
2021/09/16 00:55:50;;;;;;;;;;;21.80;62.60;;;;;;490316;242;1417;-43
2021/09/16 00:57:51;;;;;;;;;;;21.90;62.70;;;;;;490487;242;1207;-44
2021/09/16 00:59:52;;;;;;;;;;;21.80;62.70;;;;;;490470;242;1157;-44
2021/09/16 01:01:54;;;;;;;;;;;21.80;62.70;;;;;;490393;242;1291;-44
2021/09/16 01:03:56;;;;;;;;;;;21.80;62.70;;;;;;490116;242;1035;-44
2021/09/16 01:05:56;;;;;;;;;;;21.80;62.70;;;;;;490351;243;2505;-44
2021/09/16 01:07:58;;;;;;;;;;;21.80;62.70;;;;;;490246;242;1199;-43
2021/09/16 01:09:59;;;;;;;;;;;21.80;62.70;;;;;;490478;242;1175;-44
2021/09/16 01:12:00;;;;;;;;;;;21.80;62.70;;;;;;489998;242;1198;-44
2021/09/16 01:14:02;;;;;;;;;;;21.90;62.70;;;;;;490060;242;2184;-44
2021/09/16 01:16:03;;;;;;;;;;;21.80;62.60;;;;;;490132;242;1061;-44
2021/09/16 01:18:04;;;;;;;;;;;21.80;62.60;;;;;;490067;242;1256;-44
2021/09/16 01:20:06;;;;;;;;;;;21.90;62.60;;;;;;490469;242;1064;-44
2021/09/16 01:22:07;;;;;;;;;;;21.90;62.60;;;;;;490326;242;1175;-44
2021/09/16 01:24:08;;;;;;;;;;;21.80;62.60;;;;;;490352;242;1097;-44
2021/09/16 01:26:10;;;;;;;;;;;21.80;62.70;;;;;;490274;242;1231;-43
2021/09/16 01:28:11;;;;;;;;;;;21.80;62.70;;;;;;490492;242;1209;-44
2021/09/16 01:30:12;;;;;;;;;;;21.90;62.70;;;;;;490497;242;1205;-45
2021/09/16 01:32:14;;;;;;;;;;;21.80;62.60;;;;;;489988;242;1490;-44
2021/09/16 01:34:15;;;;;;;;;;;21.90;62.60;;;;;;490095;242;2194;-44
2021/09/16 01:36:16;;;;;;;;;;;21.80;62.50;;;;;;490320;242;1210;-43
2021/09/16 01:38:18;;;;;;;;;;;21.90;62.60;;;;;;490075;242;1236;-44
2021/09/16 01:40:19;;;;;;;;;;;21.80;62.60;;;;;;490073;242;1069;-43
2021/09/16 01:42:20;;;;;;;;;;;21.90;62.60;;;;;;490168;242;1483;-44
2021/09/16 01:44:22;;;;;;;;;;;21.90;62.60;;;;;;490271;242;1089;-44
2021/09/16 01:46:23;;;;;;;;;;;21.80;62.60;;;;;;490022;242;1195;-44
2021/09/16 01:48:24;;;;;;;;;;;21.80;62.70;;;;;;490266;242;1242;-43
2021/09/16 01:50:26;;;;;;;;;;;21.80;62.60;;;;;;490145;242;1209;-44
2021/09/16 01:52:27;;;;;;;;;;;21.80;62.70;;;;;;490380;242;1181;-44
2021/09/16 01:54:28;;;;;;;;;;;21.80;62.70;;;;;;490061;242;2193;-44
2021/09/16 01:56:30;;;;;;;;;;;21.80;62.70;;;;;;490154;242;1207;-44
2021/09/16 01:58:31;;;;;;;;;;;21.80;62.60;;;;;;490163;242;1166;-44
2021/09/16 02:00:32;;;;;;;;;;;21.80;62.60;;;;;;490086;242;1275;-44
2021/09/16 02:02:33;;;;;;;;;;;21.80;62.70;;;;;;490567;242;1594;-45
2021/09/16 02:04:35;;;;;;;;;;;21.80;62.50;;;;;;490250;242;1113;-44
2021/09/16 02:06:36;;;;;;;;;;;21.90;62.60;;;;;;490222;242;1338;-43
2021/09/16 02:08:37;;;;;;;;;;;21.80;62.60;;;;;;490111;242;1176;-44
2021/09/16 02:10:39;;;;;;;;;;;21.90;62.60;;;;;;489927;242;1079;-44
2021/09/16 02:12:40;;;;;;;;;;;21.80;62.70;;;;;;490336;242;2129;-44
2021/09/16 02:14:41;;;;;;;;;;;21.90;62.60;;;;;;490294;242;1066;-44
2021/09/16 02:16:43;;;;;;;;;;;21.90;62.60;;;;;;490043;242;1157;-44
2021/09/16 02:18:44;;;;;;;;;;;21.80;62.60;;;;;;490139;242;1153;-44
2021/09/16 02:20:45;;;;;;;;;;;21.80;62.70;;;;;;490146;242;1316;-44
2021/09/16 02:22:47;;;;;;;;;;;21.90;62.70;;;;;;489959;242;1209;-44
2021/09/16 02:24:48;;;;;;;;;;;21.80;62.60;;;;;;490025;242;1198;-44
2021/09/16 02:26:49;;;;;;;;;;;21.90;62.60;;;;;;490154;242;1294;-44
2021/09/16 02:28:51;;;;;;;;;;;21.80;62.60;;;;;;490243;242;1217;-44
2021/09/16 02:30:52;;;;;;;;;;;21.90;62.70;;;;;;490214;242;1242;-44
2021/09/16 02:32:53;;;;;;;;;;;21.80;62.60;;;;;;490501;242;2113;-44
2021/09/16 02:34:55;;;;;;;;;;;21.80;62.70;;;;;;490110;242;1076;-44
2021/09/16 02:36:56;;;;;;;;;;;21.80;62.60;;;;;;490135;242;1259;-43
2021/09/16 02:38:57;;;;;;;;;;;21.90;62.60;;;;;;490514;242;1038;-43
2021/09/16 02:40:59;;;;;;;;;;;21.90;62.50;;;;;;490284;242;1323;-44
2021/09/16 02:43:00;;;;;;;;;;;21.80;62.60;;;;;;490329;242;1149;-44
2021/09/16 02:45:01;;;;;;;;;;;21.90;62.50;;;;;;490538;242;1149;-44
2021/09/16 02:47:02;;;;;;;;;;;21.80;62.50;;;;;;489999;242;1169;-44
2021/09/16 02:49:04;;;;;;;;;;;21.90;62.60;;;;;;490109;242;1231;-44
2021/09/16 02:51:05;;;;;;;;;;;21.80;62.70;;;;;;490056;242;1284;-45
2021/09/16 02:53:07;;;;;;;;;;;21.80;62.70;;;;;;490369;242;2189;-44
2021/09/16 02:55:08;;;;;;;;;;;21.80;62.70;;;;;;490211;242;1144;-44
2021/09/16 02:57:09;;;;;;;;;;;21.80;62.70;;;;;;490040;242;1257;-44
2021/09/16 02:59:11;;;;;;;;;;;21.80;62.70;;;;;;490253;242;1208;-43
2021/09/16 03:01:12;;;;;;;;;;;21.80;62.70;;;;;;490448;242;1408;-43
2021/09/16 03:03:13;;;;;;;;;;;21.80;62.60;;;;;;490446;242;1203;-44
2021/09/16 03:05:15;;;;;;;;;;;21.80;62.60;;;;;;490521;242;1259;-44
2021/09/16 03:07:16;;;;;;;;;;;21.80;62.60;;;;;;490246;242;1355;-44
2021/09/16 03:09:18;;;;;;;;;;;21.80;62.70;;;;;;490517;242;1019;-44
2021/09/16 03:11:19;;;;;;;;;;;21.80;62.70;;;;;;489989;242;1209;-44
2021/09/16 03:13:20;;;;;;;;;;;21.80;62.60;;;;;;490110;242;2122;-44
2021/09/16 03:15:21;;;;;;;;;;;21.80;62.60;;;;;;490082;242;1079;-44
2021/09/16 03:17:23;;;;;;;;;;;21.80;62.70;;;;;;490516;242;1379;-44
2021/09/16 03:19:26;;;;;;;;;;;21.80;62.60;;;;;;490244;242;1203;-43
2021/09/16 03:21:27;;;;;;;;;;;21.90;62.60;;;;;;490359;242;1290;-44
2021/09/16 03:23:28;;;;;;;;;;;21.80;62.60;;;;;;490247;242;1214;-43
2021/09/16 03:25:30;;;;;;;;;;;21.80;62.60;;;;;;490343;242;961;-44
2021/09/16 03:27:31;;;;;;;;;;;21.80;62.60;;;;;;490067;242;1288;-44
2021/09/16 03:29:32;;;;;;;;;;;21.80;62.60;;;;;;490230;242;1202;-44
2021/09/16 03:31:34;;;;;;;;;;;21.80;62.70;;;;;;490324;242;1222;-43
2021/09/16 03:33:35;;;;;;;;;;;21.80;62.70;;;;;;490038;242;2134;-44
2021/09/16 03:35:36;;;;;;;;;;;21.80;62.70;;;;;;490433;242;1048;-43
2021/09/16 03:37:38;;;;;;;;;;;21.80;62.70;;;;;;489991;242;1186;-44
2021/09/16 03:39:39;;;;;;;;;;;21.80;62.70;;;;;;490061;242;1206;-44
2021/09/16 03:41:40;;;;;;;;;;;21.80;62.60;;;;;;490250;242;1219;-44
2021/09/16 03:43:42;;;;;;;;;;;21.80;62.70;;;;;;490495;242;1123;-44
2021/09/16 03:45:43;;;;;;;;;;;21.80;62.60;;;;;;490344;242;1384;-43
2021/09/16 03:47:44;;;;;;;;;;;21.90;62.60;;;;;;490430;242;1192;-44
2021/09/16 03:49:46;;;;;;;;;;;21.80;62.60;;;;;;490282;242;1182;-44
2021/09/16 03:51:47;;;;;;;;;;;21.80;62.70;;;;;;490417;242;1222;-44
2021/09/16 03:53:48;;;;;;;;;;;21.80;62.70;;;;;;490258;242;2126;-44
2021/09/16 03:55:49;;;;;;;;;;;21.80;62.70;;;;;;490493;242;1141;-44
2021/09/16 03:57:51;;;;;;;;;;;21.80;62.60;;;;;;490006;242;1223;-44
2021/09/16 03:59:52;;;;;;;;;;;21.80;62.70;;;;;;490194;242;1061;-44
2021/09/16 04:01:53;;;;;;;;;;;21.80;62.70;;;;;;490288;242;1389;-44
2021/09/16 04:03:55;;;;;;;;;;;21.80;62.70;;;;;;490163;242;1225;-44
2021/09/16 04:05:56;;;;;;;;;;;21.80;62.80;;;;;;489966;242;1184;-43
2021/09/16 04:07:57;;;;;;;;;;;21.80;62.80;;;;;;489942;242;1184;-44
2021/09/16 04:09:59;;;;;;;;;;;21.80;62.70;;;;;;490421;242;1154;-44
2021/09/16 04:12:00;;;;;;;;;;;21.80;62.70;;;;;;490168;242;1253;-44
2021/09/16 04:14:01;;;;;;;;;;;21.80;62.70;;;;;;489989;242;2200;-44
2021/09/16 04:16:03;;;;;;;;;;;21.80;62.70;;;;;;490212;242;1309;-44
2021/09/16 04:18:04;;;;;;;;;;;21.80;62.60;;;;;;490204;242;1201;-43
2021/09/16 04:20:05;;;;;;;;;;;21.80;62.60;;;;;;490069;242;1059;-43
2021/09/16 04:22:07;;;;;;;;;;;21.80;62.70;;;;;;490197;242;1272;-44
2021/09/16 04:24:13;;;;;;;;;;;21.80;62.70;;;;;;490461;242;1113;-44
2021/09/16 04:26:09;;;;;;;;;;;21.80;62.70;;;;;;489852;243;2128;-43
2021/09/16 04:28:11;;;;;;;;;;;21.80;62.70;;;;;;489962;242;1568;-44
2021/09/16 04:30:12;;;;;;;;;;;21.80;62.70;;;;;;490195;242;1059;-44
2021/09/16 04:32:13;;;;;;;;;;;21.90;62.60;;;;;;490022;242;1204;-44
2021/09/16 04:34:15;;;;;;;;;;;21.80;62.70;;;;;;490424;242;2188;-44
2021/09/16 04:36:16;;;;;;;;;;;21.80;62.60;;;;;;490009;242;1297;-43
2021/09/16 04:38:17;;;;;;;;;;;21.80;62.60;;;;;;490400;242;1188;-44
2021/09/16 04:40:19;;;;;;;;;;;21.80;62.60;;;;;;490022;242;1201;-44
2021/09/16 04:42:21;;;;;;;;;;;21.90;62.60;;;;;;489994;242;1268;-44
2021/09/16 04:44:22;;;;;;;;;;;21.90;62.50;;;;;;490397;242;1176;-44
2021/09/16 04:46:24;;;;;;;;;;;21.90;62.60;;;;;;489993;242;1373;-44
2021/09/16 04:48:25;;;;;;;;;;;21.80;62.60;;;;;;490009;242;1117;-44
2021/09/16 04:50:26;;;;;;;;;;;21.80;62.70;;;;;;489959;242;1194;-43
2021/09/16 04:52:28;;;;;;;;;;;21.80;62.70;;;;;;490017;242;1525;-44
2021/09/16 04:54:29;;;;;;;;;;;21.80;62.70;;;;;;490331;243;2188;-44
2021/09/16 04:56:30;;;;;;;;;;;21.80;62.70;;;;;;490024;242;1346;-44
2021/09/16 04:58:32;;;;;;;;;;;21.80;62.60;;;;;;489943;242;1130;-44
2021/09/16 05:00:33;;;;;;;;;;;21.80;62.60;;;;;;490379;242;1076;-44
2021/09/16 05:02:34;;;;;;;;;;;21.80;62.70;;;;;;490163;242;1202;-44
2021/09/16 05:04:35;;;;;;;;;;;21.80;62.70;;;;;;489909;242;1194;-44
2021/09/16 05:06:37;;;;;;;;;;;21.90;62.60;;;;;;490089;242;1500;-44
2021/09/16 05:08:38;;;;;;;;;;;21.90;62.60;;;;;;490012;242;1146;-44
2021/09/16 05:10:39;;;;;;;;;;;21.80;62.50;;;;;;489837;242;1121;-44
2021/09/16 05:12:41;;;;;;;;;;;21.90;62.60;;;;;;489858;242;1287;-44
2021/09/16 05:14:42;;;;;;;;;;;21.80;62.60;;;;;;490114;242;2121;-44
2021/09/16 05:16:44;;;;;;;;;;;21.90;62.50;;;;;;490123;242;1184;-44
2021/09/16 05:18:45;;;;;;;;;;;21.90;62.60;;;;;;489790;242;1049;-45
2021/09/16 05:20:46;;;;;;;;;;;21.80;62.70;;;;;;489819;242;1124;-43
2021/09/16 05:22:48;;;;;;;;;;;21.90;62.70;;;;;;489641;242;1137;-44
2021/09/16 05:24:49;;;;;;;;;;;21.90;62.50;;;;;;489694;242;1200;-44
2021/09/16 05:26:50;;;;;;;;;;;21.90;62.50;;;;;;489741;242;1034;-44
2021/09/16 05:28:52;;;;;;;;;;;21.80;62.60;;;;;;489650;242;1330;-44
2021/09/16 05:30:53;;;;;;;;;;;21.90;62.60;;;;;;489748;242;1070;-44
2021/09/16 05:32:54;;;;;;;;;;;21.80;62.50;;;;;;489765;242;1224;-44
2021/09/16 05:34:56;;;;;;;;;;;21.80;62.60;;;;;;489925;242;2193;-44
2021/09/16 05:36:57;;;;;;;;;;;21.80;62.60;;;;;;489757;242;1559;-43
2021/09/16 05:38:58;;;;;;;;;;;21.80;62.60;;;;;;489927;242;1228;-44
2021/09/16 05:41:00;;;;;;;;;;;21.90;62.60;;;;;;490045;242;1131;-44
2021/09/16 05:43:01;;;;;;;;;;;21.80;62.60;;;;;;489802;242;1348;-44
2021/09/16 05:45:02;;;;;;;;;;;21.90;62.50;;;;;;490146;242;1087;-44
2021/09/16 05:47:03;;;;;;;;;;;21.90;62.60;;;;;;489865;242;1314;-44
2021/09/16 05:49:05;;;;;;;;;;;21.90;62.50;;;;;;489725;242;1232;-43
2021/09/16 05:51:06;;;;;;;;;;;21.90;62.40;;;;;;489993;242;1134;-44
2021/09/16 05:53:09;;;;;;;;;;;21.90;62.50;;;;;;489693;242;1119;-44
2021/09/16 05:55:10;;;;;;;;;;;21.90;62.60;;;;;;489650;243;2225;-44
2021/09/16 05:57:11;;;;;;;;;;;21.90;62.60;;;;;;489713;242;1365;-43
2021/09/16 05:59:12;;;;;;;;;;;21.90;62.60;;;;;;489928;242;1148;-44
2021/09/16 06:01:13;;;;;;;;;;;21.90;62.40;;;;;;489641;242;1195;-44
2021/09/16 06:03:14;;;;;;;;;;;21.80;62.50;;;;;;489690;242;1233;-43
2021/09/16 06:05:16;;;;;;;;;;;21.90;62.60;;;;;;490052;242;1138;-44
2021/09/16 06:07:17;;;;;;;;;;;21.90;62.50;;;;;;489563;242;1427;-44
2021/09/16 06:09:18;;;;;;;;;;;21.90;62.60;;;;;;489958;242;1067;-44
2021/09/16 06:11:20;;;;;;;;;;;21.90;62.50;;;;;;489808;242;1410;-44
2021/09/16 06:13:21;;;;;;;;;;;21.90;62.50;;;;;;490040;242;1081;-44
2021/09/16 06:15:23;;;;;;;;;;;21.90;62.40;;;;;;489751;242;2193;-44
2021/09/16 06:17:24;;;;;;;;;;;21.90;62.40;;;;;;489682;242;1175;-43
2021/09/16 06:19:25;;;;;;;;;;;21.90;62.40;;;;;;489734;242;1272;-44
2021/09/16 06:21:27;;;;;;;;;;;21.90;62.50;;;;;;489433;242;1386;-44
2021/09/16 06:23:28;;;;;;;;;;;21.90;62.60;;;;;;489622;242;1179;-44
2021/09/16 06:25:29;;;;;;;;;;;21.90;62.60;;;;;;489521;242;1189;-44
2021/09/16 06:27:31;;;;;;;;;;;21.80;62.60;;;;;;489434;242;1211;-44
2021/09/16 06:29:32;;;;;;;;;;;21.80;62.60;;;;;;489567;242;1085;-44
2021/09/16 06:31:34;;;;;;;;;;;21.90;62.50;;;;;;489548;242;1221;-45
2021/09/16 06:33:35;;;;;;;;;;;21.90;62.60;;;;;;489509;242;1180;-44
2021/09/16 06:35:36;;;;;;;;;;;21.90;62.60;;;;;;489374;242;2110;-44
2021/09/16 06:37:38;;;;;;;;;;;21.90;62.60;;;;;;489106;242;1170;-44
2021/09/16 06:39:39;;;;;;;;;;;21.90;62.60;;;;;;489092;242;1177;-43
2021/09/16 06:41:40;;;;;;;;;;;21.90;62.50;;;;;;489180;242;1289;-43
2021/09/16 06:43:42;;;;;;;;;;;21.90;62.40;;;;;;489184;242;1556;-44
2021/09/16 06:45:43;;;;;;;;;;;21.90;62.50;;;;;;489177;242;1049;-45
2021/09/16 06:47:44;;;;;;;;;;;21.90;62.50;;;;;;489181;242;1266;-43
2021/09/16 06:49:46;;;;;;;;;;;21.90;62.40;;;;;;489140;242;1136;-44
2021/09/16 06:51:47;;;;;;;;;;;21.90;62.40;;;;;;489419;242;1227;-44
2021/09/16 06:53:49;;;;;;;;;;;21.90;62.50;;;;;;489380;242;1309;-44
2021/09/16 06:55:50;;;;;;;;;;;21.90;62.50;;;;;;489468;242;2189;-44
2021/09/16 06:57:51;;;;;;;;;;;21.90;62.60;;;;;;488996;242;1232;-44
2021/09/16 06:59:52;;;;;;;;;;;21.80;62.60;;;;;;489070;242;1078;-44
2021/09/16 07:01:54;;;;;;;;;;;21.90;62.60;;;;;;488822;242;1196;-45
2021/09/16 07:03:55;;;;;;;;;;;21.80;62.60;;;;;;488961;242;1495;-44
2021/09/16 07:05:56;;;;;;;;;;;21.90;62.60;;;;;;489083;242;1149;-44
2021/09/16 07:07:58;;;;;;;;;;;21.90;62.60;;;;;;488955;242;1305;-43
2021/09/16 07:09:59;;;;;;;;;;;21.80;62.60;;;;;;488988;242;1241;-44
2021/09/16 07:12:00;;;;;;;;;;;21.90;62.60;;;;;;488859;242;1201;-44
2021/09/16 07:14:02;;;;;;;;;;;21.90;62.60;;;;;;488908;242;1217;-44
2021/09/16 07:16:03;;;;;;;;;;;21.90;62.60;;;;;;488902;242;2117;-44
2021/09/16 07:18:04;;;;;;;;;;;21.90;62.60;;;;;;488899;242;1173;-44
2021/09/16 07:20:06;;;;;;;;;;;21.90;62.60;;;;;;488862;242;1214;-44
2021/09/16 07:22:07;;;;;;;;;;;21.90;62.60;;;;;;489002;242;1341;-44
2021/09/16 07:24:09;;;;;;;;;;;21.80;62.60;;;;;;489120;242;1097;-43
2021/09/16 07:26:10;;;;;;;;;;;21.80;62.60;;;;;;488988;242;1258;-44
2021/09/16 07:28:11;;;;;;;;;;;21.80;62.60;;;;;;489012;242;1063;-44
2021/09/16 07:30:13;;;;;;;;;;;21.90;62.70;;;;;;489161;242;1084;-45
2021/09/16 07:32:14;;;;;;;;;;;21.90;62.60;;;;;;488956;242;1272;-45
2021/09/16 07:34:16;;;;;;;;;;;21.90;62.60;;;;;;488905;242;1178;-44
2021/09/16 07:36:18;;;;;;;;;;;21.90;62.60;;;;;;488900;242;2137;-44
2021/09/16 07:38:19;;;;;;;;;;;21.80;62.60;;;;;;489019;242;1091;-44
2021/09/16 07:40:20;;;;;;;;;;;21.90;62.60;;;;;;489029;242;1179;-44
2021/09/16 07:42:23;;;;;;;;;;;21.90;62.60;;;;;;489763;242;1104;-44
2021/09/16 07:44:25;;;;;;;;;;;21.90;62.60;;;;;;489761;242;1040;-44
2021/09/16 07:46:27;;;;;;;;;;;21.80;62.60;;;;;;489628;242;1188;-43
2021/09/16 07:48:27;;;;;;;;;;;21.80;62.60;;;;;;489841;242;2275;-44
2021/09/16 07:50:28;;;;;;;;;;;21.90;62.60;;;;;;489879;242;1141;-44
2021/09/16 07:52:30;;;;;;;;;;;21.90;62.50;;;;;;489836;242;1141;-43
2021/09/16 07:54:31;;;;;;;;;;;21.90;62.60;;;;;;489369;242;850;-44
2021/09/16 07:56:32;;;;;;;;;;;21.90;62.60;;;;;;489800;242;2188;-44
2021/09/16 07:58:34;;;;;;;;;;;21.90;62.40;;;;;;489354;242;903;-44
2021/09/16 08:00:35;;;;;;;;;;;21.90;62.50;;;;;;489901;242;1252;-44
2021/09/16 08:02:36;;;;;;;;;;;21.80;62.60;;;;;;489748;242;1116;-44
2021/09/16 08:04:38;;;;;;;;;;;21.90;62.60;;;;;;489880;242;842;-44
2021/09/16 08:06:39;;;;;;;;;;;21.90;62.50;;;;;;489874;242;1285;-45
2021/09/16 08:08:40;;;;;;;;;;;21.90;62.60;;;;;;489977;242;858;-44
2021/09/16 08:10:42;;;;;;;;;;;21.80;62.60;;;;;;489505;242;1065;-44
2021/09/16 08:12:43;;;;;;;;;;;21.90;62.50;;;;;;489439;242;1092;-44
2021/09/16 08:14:44;;;;;;;;;;;21.90;62.50;;;;;;489912;242;2165;-44
2021/09/16 08:16:46;;;;;;;;;;;21.90;62.60;;;;;;489387;242;1169;-44
2021/09/16 08:18:47;;;;;;;;;;;21.80;62.60;;;;;;489402;242;997;-44
2021/09/16 08:20:49;;;;;;;;;;;21.90;62.60;;;;;;489804;242;1133;-44
2021/09/16 08:22:50;;;;;;;;;;;21.90;62.50;;;;;;489713;243;2247;-44
2021/09/16 08:24:51;;;;;;;;;;;21.90;62.50;;;;;;489780;242;1319;-44
2021/09/16 08:26:52;;;;;;;;;;;21.90;62.50;;;;;;489899;242;1060;-43
2021/09/16 08:28:54;;;;;;;;;;;21.90;62.50;;;;;;489506;242;1101;-44
2021/09/16 08:30:55;;;;;;;;;;;21.90;62.50;;;;;;489983;242;1352;-45
2021/09/16 08:32:56;;;;;;;;;;;21.90;62.40;;;;;;489824;242;1135;-44
2021/09/16 08:34:57;;;;;;;;;;;21.90;62.50;;;;;;489389;242;2197;-44
2021/09/16 08:36:59;;;;;;;;;;;21.90;62.50;;;;;;488786;242;1074;-44
2021/09/16 08:39:00;;;;;;;;;;;21.90;62.50;;;;;;489625;242;1124;-44
2021/09/16 08:41:01;;;;;;;;;;;21.90;62.40;;;;;;489292;242;1075;-44
2021/09/16 08:43:04;;;;;;;;;;;21.90;62.40;;;;;;489851;242;1097;-45
2021/09/16 08:45:04;;;;;;;;;;;21.90;62.40;;;;;;489712;243;1269;-44
2021/09/16 08:47:05;;;;;;;;;;;21.90;62.40;;;;;;489282;242;1071;-45
2021/09/16 08:49:07;;;;;;;;;;;21.90;62.50;;;;;;489872;242;910;-44
2021/09/16 08:51:08;;;;;;;;;;;21.90;62.60;;;;;;489887;242;1117;-44
2021/09/16 08:53:09;;;;;;;;;;;21.90;62.60;;;;;;490032;242;1086;-43
2021/09/16 08:55:11;;;;;;;;;;;21.90;62.60;;;;;;489310;242;2169;-43
2021/09/16 08:57:12;;;;;;;;;;;21.90;62.50;;;;;;489197;242;1187;-44
2021/09/16 08:59:13;;;;;;;;;;;21.90;62.40;;;;;;489151;242;1246;-44
2021/09/16 09:01:15;;;;;;;;;;;21.90;62.40;;;;;;489007;242;1257;-43
2021/09/16 09:03:16;;;;;;;;;;;21.90;62.50;;;;;;489208;242;1145;-44
2021/09/16 09:05:17;;;;;;;;;;;21.90;62.50;;;;;;489253;242;1324;-44
2021/09/16 09:07:19;;;;;;;;;;;21.90;62.50;;;;;;489262;242;1226;-44
2021/09/16 09:09:20;;;;;;;;;;;21.90;62.50;;;;;;489535;243;1353;-43
2021/09/16 09:11:21;;;;;;;;;;;21.90;62.50;;;;;;489300;242;1126;-44
2021/09/16 09:13:23;;;;;;;;;;;21.90;62.40;;;;;;489963;242;1129;-45
2021/09/16 09:15:24;;;;;;;;;;;21.90;62.40;;;;;;489933;242;2188;-44
2021/09/16 09:17:25;;;;;;;;;;;21.90;62.50;;;;;;489446;242;1203;-44
2021/09/16 09:19:27;;;;;;;;;;;21.90;62.40;;;;;;489501;242;887;-44
2021/09/16 09:21:28;;;;;;;;;;;21.90;62.50;;;;;;489833;242;1115;-44
2021/09/16 09:23:29;;;;;;;;;;;21.90;62.40;;;;;;489419;242;1042;-44
2021/09/16 09:25:30;;;;;;;;;;;21.90;62.50;;;;;;489930;242;1026;-43
2021/09/16 09:27:32;;;;;;;;;;;21.90;62.60;;;;;;489969;242;1038;-44
2021/09/16 09:29:33;;;;;;;;;;;21.90;62.50;;;;;;490003;242;1118;-44
2021/09/16 09:31:34;;;;;;;;;;;21.90;62.50;;;;;;489478;242;1184;-44
2021/09/16 09:33:36;;;;;;;;;;;21.90;62.60;;;;;;489492;242;1216;-44
2021/09/16 09:35:37;;;;;;;;;;;21.80;62.60;;;;;;489516;242;2197;-44
2021/09/16 09:37:38;;;;;;;;;;;21.80;62.60;;;;;;489878;242;1129;-44
2021/09/16 09:39:40;;;;;;;;;;;21.90;62.50;;;;;;489237;242;1418;-44
2021/09/16 09:41:41;;;;;;;;;;;21.90;62.60;;;;;;489210;242;1226;-43
2021/09/16 09:43:43;;;;;;;;;;;21.90;62.60;;;;;;489210;242;1114;-43
2021/09/16 09:45:44;;;;;;;;;;;21.90;62.40;;;;;;489157;242;1260;-44
2021/09/16 09:47:45;;;;;;;;;;;21.90;62.50;;;;;;489216;242;1155;-44
2021/09/16 09:49:47;;;;;;;;;;;21.90;62.50;;;;;;489135;242;1088;-44
2021/09/16 09:51:48;;;;;;;;;;;21.90;62.60;;;;;;489444;242;1170;-44
2021/09/16 09:53:49;;;;;;;;;;;21.90;62.50;;;;;;489336;242;1133;-44
2021/09/16 09:55:51;;;;;;;;;;;21.90;62.60;;;;;;489407;242;2181;-44
2021/09/16 09:57:52;;;;;;;;;;;21.90;62.60;;;;;;489649;242;1115;-43
2021/09/16 09:59:55;;;;;;;;;;;21.90;62.60;;;;;;489382;242;1177;-44
2021/09/16 10:01:56;;;;;;;;;;;21.90;62.50;;;;;;489398;242;1309;-43
2021/09/16 10:03:58;;;;;;;;;;;21.90;62.50;;;;;;489292;242;1097;-44
2021/09/16 10:05:59;;;;;;;;;;;21.90;62.40;;;;;;489137;242;1330;-44
2021/09/16 10:08:00;;;;;;;;;;;21.90;62.50;;;;;;489432;242;1185;-44
2021/09/16 10:10:02;;;;;;;;;;;21.90;62.50;;;;;;489197;242;1127;-44
2021/09/16 10:12:03;;;;;;;;;;;21.90;62.40;;;;;;489295;242;1277;-44
2021/09/16 10:14:04;;;;;;;;;;;21.90;62.60;;;;;;489269;242;1384;-44
2021/09/16 10:16:06;;;;;;;;;;;21.80;62.60;;;;;;489224;242;2118;-43
2021/09/16 10:18:07;;;;;;;;;;;21.90;62.60;;;;;;489049;242;1226;-44
2021/09/16 10:20:08;;;;;;;;;;;21.90;62.50;;;;;;489109;242;1155;-44
2021/09/16 10:22:10;;;;;;;;;;;21.90;62.40;;;;;;489216;242;1236;-44
2021/09/16 10:24:11;;;;;;;;;;;21.90;62.50;;;;;;489410;242;1191;-44
2021/09/16 10:26:12;;;;;;;;;;;21.90;62.50;;;;;;489441;242;1158;-43
2021/09/16 10:28:14;;;;;;;;;;;21.90;62.40;;;;;;489704;242;1103;-44
2021/09/16 10:30:15;;;;;;;;;;;21.90;62.40;;;;;;489225;242;1221;-43
2021/09/16 10:32:17;;;;;;;;;;;21.90;62.40;;;;;;489421;242;1144;-44
2021/09/16 10:34:18;;;;;;;;;;;21.90;62.60;;;;;;489209;242;1211;-44
2021/09/16 10:36:19;;;;;;;;;;;21.90;62.60;;;;;;489397;242;2133;-45
2021/09/16 10:38:21;;;;;;;;;;;21.90;62.60;;;;;;489198;242;1237;-44
2021/09/16 10:40:22;;;;;;;;;;;21.90;62.60;;;;;;489200;242;1170;-44
2021/09/16 10:42:23;;;;;;;;;;;21.90;62.50;;;;;;489535;242;1147;-44
2021/09/16 10:44:24;;;;;;;;;;;22.00;62.50;;;;;;489511;242;1012;-44
2021/09/16 10:46:26;;;;;;;;;;;21.90;62.40;;;;;;489293;242;1221;-45
2021/09/16 10:48:27;;;;;;;;;;;21.90;62.50;;;;;;489114;242;1182;-44
2021/09/16 10:50:29;;;;;;;;;;;21.90;62.40;;;;;;489130;242;1197;-43
2021/09/16 10:52:30;;;;;;;;;;;21.90;62.40;;;;;;489197;242;1124;-44
2021/09/16 10:54:31;;;;;;;;;;;21.90;62.40;;;;;;489142;242;1267;-44
2021/09/16 10:56:33;;;;;;;;;;;21.90;62.50;;;;;;489213;242;2127;-44
2021/09/16 10:58:34;;;;;;;;;;;21.90;62.40;;;;;;489578;242;891;-44
2021/09/16 11:00:35;;;;;;;;;;;21.90;62.40;;;;;;489467;242;1045;-44
2021/09/16 11:02:36;;;;;;;;;;;21.90;62.40;;;;;;489138;242;1197;-44
2021/09/16 11:04:38;;;;;;;;;;;21.90;62.50;;;;;;488963;242;1137;-44
2021/09/16 11:06:39;;;;;;;;;;;21.90;62.50;;;;;;489006;242;1210;-44
2021/09/16 11:08:40;;;;;;;;;;;21.80;62.50;;;;;;489267;242;1544;-44
2021/09/16 11:10:42;;;;;;;;;;;21.80;62.60;;;;;;489286;242;1150;-44
2021/09/16 11:12:43;;;;;;;;;;;21.80;62.70;;;;;;489274;242;1039;-44
2021/09/16 11:14:44;;;;;;;;;;;21.90;62.50;;;;;;489666;242;1122;-44
2021/09/16 11:16:46;;;;;;;;;;;21.90;62.50;;;;;;489693;242;2188;-47
2021/09/16 11:18:47;;;;;;;;;;;21.80;62.70;;;;;;489851;242;991;-47
2021/09/16 11:20:48;;;;;;;;;;;21.80;62.70;;;;;;489413;242;1157;-47
2021/09/16 11:22:50;;;;;;;;;;;21.80;62.70;;;;;;489846;242;1099;-46
2021/09/16 11:24:51;;;;;;;;;;;21.80;62.70;;;;;;489443;242;913;-47
2021/09/16 11:26:52;;;;;;;;;;;21.80;62.70;;;;;;489398;242;1088;-46
2021/09/16 11:28:54;;;;;;;;;;;21.80;62.60;;;;;;489447;242;1011;-46
2021/09/16 11:30:55;;;;;;;;;;;21.80;62.70;;;;;;489849;242;858;-46
2021/09/16 11:32:58;;;;;;;;;;;21.90;62.60;;;;;;489855;242;1110;-47
2021/09/16 11:34:58;;;;;;;;;;;21.80;62.60;;;;;;489316;243;2211;-47
2021/09/16 11:36:59;;;;;;;;;;;21.90;62.60;;;;;;489848;242;2198;-47
2021/09/16 11:39:00;;;;;;;;;;;21.90;62.50;;;;;;489386;242;1313;-47
2021/09/16 11:41:01;;;;;;;;;;;21.80;62.60;;;;;;489800;242;1298;-46
2021/09/16 11:43:03;;;;;;;;;;;21.90;62.60;;;;;;489336;242;1185;-46
2021/09/16 11:45:04;;;;;;;;;;;21.90;62.60;;;;;;489369;242;913;-47
2021/09/16 11:47:05;;;;;;;;;;;21.90;62.60;;;;;;489367;242;1201;-46
2021/09/16 11:49:07;;;;;;;;;;;21.90;62.60;;;;;;489964;242;1140;-46
2021/09/16 11:51:08;;;;;;;;;;;21.90;62.60;;;;;;489910;242;1150;-46
2021/09/16 11:53:10;;;;;;;;;;;21.90;62.50;;;;;;489935;242;1077;-46
2021/09/16 11:55:11;;;;;;;;;;;21.90;62.50;;;;;;489430;242;879;-46
2021/09/16 11:57:12;;;;;;;;;;;21.90;62.60;;;;;;489827;242;2181;-47